Time;durP1;ratioP1;P1;durP2;ratioP2;P2;SDS_P1;SDS_P2;PMS_P1;PMS_P2;Temp;Humidity;BMP_temperature;BMP_pressure;BME280_temperature;BME280_humidity;BME280_pressure;Samples;Min_cycle;Max_cycle;Signal;HPM_P1;HPM_P2
2022/04/21 00:00:19;;;;;;;4.78;2.28;;;9.80;77.50;;;;;;5083759;28;20036;-48
2022/04/21 00:02:45;;;;;;;4.30;2.40;;;9.80;78.20;;;;;;5064566;28;20051;-47
2022/04/21 00:05:12;;;;;;;4.43;2.40;;;9.70;77.90;;;;;;5081549;28;20032;-45
2022/04/21 00:07:39;;;;;;;8.13;2.63;;;9.70;78.70;;;;;;5083010;28;20082;-54
2022/04/21 00:10:06;;;;;;;5.15;2.70;;;9.60;79.00;;;;;;5082911;28;20078;-46
2022/04/21 00:12:33;;;;;;;5.05;2.58;;;9.60;79.30;;;;;;5082599;28;20032;-44
2022/04/21 00:14:59;;;;;;;7.05;2.47;;;9.60;79.70;;;;;;5083443;28;20544;-48
2022/04/21 00:17:25;;;;;;;6.30;2.28;;;9.60;79.20;;;;;;5079552;28;20522;-44
2022/04/21 00:19:51;;;;;;;6.70;2.50;;;9.60;79.50;;;;;;5083995;28;20048;-45
2022/04/21 00:25:01;;;;;;;5.50;2.30;;;9.50;80.80;;;;;;5085424;28;20500;-48
2022/04/21 00:27:27;;;;;;;4.30;2.20;;;9.50;81.30;;;;;;5077498;28;20046;-43
2022/04/21 00:29:52;;;;;;;6.63;2.60;;;9.50;80.80;;;;;;5084008;28;20040;-41
2022/04/21 00:32:18;;;;;;;6.05;2.30;;;9.40;81.80;;;;;;5082363;28;20036;-45
2022/04/21 00:34:43;;;;;;;4.00;2.25;;;9.40;82.60;;;;;;5084903;28;20068;-43
2022/04/21 00:37:10;;;;;;;5.57;2.20;;;9.40;82.40;;;;;;5064577;28;20144;-41
2022/04/21 00:39:36;;;;;;;5.63;2.20;;;9.40;82.20;;;;;;5080166;28;20048;-49
2022/04/21 00:42:02;;;;;;;4.05;2.35;;;9.40;82.00;;;;;;5081079;28;20499;-45
2022/04/21 00:44:29;;;;;;;4.35;2.05;;;9.40;82.50;;;;;;5078230;28;20461;-48
2022/04/21 00:46:57;;;;;;;6.43;2.22;;;9.40;83.10;;;;;;5079787;28;20036;-46
2022/04/21 00:49:25;;;;;;;5.30;2.50;;;9.40;82.60;;;;;;5085891;28;20531;-47
2022/04/21 00:51:52;;;;;;;4.85;2.88;;;9.30;83.00;;;;;;5085995;28;20035;-44
2022/04/21 00:54:18;;;;;;;5.80;2.30;;;9.30;84.50;;;;;;5082243;28;20130;-44
2022/04/21 00:56:45;;;;;;;5.15;2.72;;;9.30;84.30;;;;;;5090523;28;20434;-45
2022/04/21 00:59:13;;;;;;;4.53;2.47;;;9.30;84.80;;;;;;5090390;28;20494;-49
2022/04/21 01:04:24;;;;;;;4.18;2.40;;;9.20;84.90;;;;;;5090748;28;20043;-46
2022/04/21 01:06:53;;;;;;;4.75;2.55;;;9.10;85.90;;;;;;5089772;28;20032;-48
2022/04/21 01:09:19;;;;;;;3.97;2.33;;;9.10;87.00;;;;;;5089497;28;20038;-50
2022/04/21 01:11:46;;;;;;;5.13;2.60;;;9.10;86.50;;;;;;5090646;28;20364;-47
2022/04/21 01:14:14;;;;;;;6.18;2.28;;;9.00;87.40;;;;;;5084233;28;20115;-47
2022/04/21 01:16:40;;;;;;;6.63;2.60;;;9.00;88.60;;;;;;5091240;28;20052;-49
2022/04/21 01:19:05;;;;;;;6.22;2.60;;;9.00;89.20;;;;;;5068892;28;20055;-50
2022/04/21 01:21:31;;;;;;;3.65;2.38;;;8.90;89.90;;;;;;5083841;28;20404;-47
2022/04/21 01:23:57;;;;;;;4.30;2.42;;;8.90;90.20;;;;;;5084640;28;20032;-47
2022/04/21 01:26:24;;;;;;;5.28;2.50;;;8.90;90.00;;;;;;5085697;28;20430;-46
2022/04/21 01:28:51;;;;;;;4.57;2.40;;;8.80;90.00;;;;;;5083249;28;20098;-42
2022/04/21 01:31:22;;;;;;;4.60;2.28;;;8.80;90.30;;;;;;5082041;28;20512;-48
2022/04/21 01:33:48;;;;;;;4.20;2.40;;;8.80;90.90;;;;;;5083236;28;20113;-47
2022/04/21 01:36:14;;;;;;;7.38;3.00;;;8.70;90.50;;;;;;5080522;28;20082;-48
2022/04/21 01:41:24;;;;;;;4.72;2.92;;;8.70;90.90;;;;;;5091296;28;20036;-43
2022/04/21 01:43:49;;;;;;;5.22;2.90;;;8.70;91.20;;;;;;5086733;28;20122;-46
2022/04/21 01:46:15;;;;;;;5.40;2.30;;;8.60;92.10;;;;;;5081505;28;20067;-46
2022/04/21 01:48:42;;;;;;;5.13;2.75;;;8.70;92.20;;;;;;5088673;28;20542;-45
2022/04/21 01:51:07;;;;;;;10.82;3.20;;;8.60;92.30;;;;;;5080018;28;20145;-49
2022/04/21 01:53:33;;;;;;;4.40;2.33;;;8.60;92.70;;;;;;5089380;28;20048;-46
2022/04/21 01:55:58;;;;;;;4.95;3.00;;;8.50;92.50;;;;;;5077161;28;20024;-49
2022/04/21 01:58:24;;;;;;;6.80;2.95;;;8.50;93.30;;;;;;5070701;28;20040;-44
2022/04/21 02:00:51;;;;;;;8.63;3.30;;;8.50;92.60;;;;;;5088115;28;20110;-48
2022/04/21 02:03:17;;;;;;;6.18;3.10;;;8.50;93.40;;;;;;5081763;28;20040;-44
2022/04/21 02:05:42;;;;;;;4.80;2.92;;;8.40;93.20;;;;;;5081553;28;20127;-46
2022/04/21 02:08:08;;;;;;;5.05;2.67;;;8.40;93.50;;;;;;5082382;28;20127;-47
2022/04/21 02:10:34;;;;;;;4.75;3.08;;;8.40;93.70;;;;;;5080068;28;20047;-46
2022/04/21 02:13:00;;;;;;;5.75;2.83;;;8.40;93.70;;;;;;5080634;28;20498;-48
2022/04/21 02:15:26;;;;;;;4.10;2.25;;;8.40;94.30;;;;;;5080551;28;20064;-46
2022/04/21 02:17:52;;;;;;;5.35;3.05;;;8.40;94.20;;;;;;5076538;28;20094;-43
2022/04/21 02:20:18;;;;;;;6.70;3.00;;;8.40;93.80;;;;;;5084321;28;20028;-47
2022/04/21 02:22:45;;;;;;;5.68;2.72;;;8.40;94.20;;;;;;5085356;28;20535;-48
2022/04/21 02:25:12;;;;;;;5.95;3.03;;;8.30;94.70;;;;;;5083151;28;20127;-42
2022/04/21 02:27:39;;;;;;;4.88;3.17;;;8.30;94.90;;;;;;5080570;28;20035;-48
2022/04/21 02:30:07;;;;;;;5.47;3.33;;;8.30;94.80;;;;;;5086268;28;20472;-49
2022/04/21 02:32:32;;;;;;;7.45;3.35;;;8.30;95.30;;;;;;5082245;28;20039;-46
2022/04/21 02:34:58;;;;;;;5.25;3.20;;;8.30;95.40;;;;;;5085403;28;20440;-45
2022/04/21 02:37:24;;;;;;;6.78;3.72;;;8.20;95.20;;;;;;5077951;28;20028;-49
2022/04/21 02:39:50;;;;;;;7.35;4.00;;;8.20;95.20;;;;;;5079050;28;21431;-46
2022/04/21 02:42:18;;;;;;;5.93;3.78;;;8.20;95.60;;;;;;5080488;28;20036;-48
2022/04/21 02:44:43;;;;;;;7.57;4.35;;;8.20;95.40;;;;;;5082655;28;20037;-46
2022/04/21 02:47:09;;;;;;;5.60;3.58;;;8.10;95.80;;;;;;5077381;28;20040;-48
2022/04/21 02:49:36;;;;;;;6.28;3.58;;;8.10;96.00;;;;;;5078014;28;20459;-48
2022/04/21 02:52:06;;;;;;;6.32;3.65;;;8.10;96.00;;;;;;5078233;28;20086;-44
2022/04/21 02:57:22;;;;;;;7.25;3.95;;;8.10;96.70;;;;;;5082434;28;20040;-46
2022/04/21 02:59:54;;;;;;;7.07;4.00;;;8.00;96.40;;;;;;5078333;28;20032;-45
2022/04/21 03:02:21;;;;;;;6.25;3.65;;;8.00;97.10;;;;;;5070749;28;20043;-46
2022/04/21 03:04:47;;;;;;;7.70;4.22;;;8.00;97.30;;;;;;5084783;28;20039;-46
2022/04/21 03:07:13;;;;;;;8.07;4.47;;;8.00;97.50;;;;;;5076720;28;20420;-49
2022/04/21 03:09:40;;;;;;;8.02;4.32;;;7.90;97.50;;;;;;5085909;28;20029;-44
2022/04/21 03:12:07;;;;;;;7.88;4.35;;;7.90;97.50;;;;;;5075421;28;20048;-48
2022/04/21 03:14:37;;;;;;;8.10;4.53;;;7.90;98.10;;;;;;5079401;28;20044;-42
2022/04/21 03:17:04;;;;;;;8.75;3.70;;;7.80;98.70;;;;;;5074651;28;20119;-46
2022/04/21 03:19:29;;;;;;;5.82;3.70;;;7.70;98.20;;;;;;5065522;28;20129;-49
2022/04/21 03:24:40;;;;;;;6.45;3.53;;;7.70;98.50;;;;;;5061417;28;20063;-50
2022/04/21 03:27:05;;;;;;;10.68;5.05;;;7.70;99.00;;;;;;5083877;28;20040;-46
2022/04/21 03:29:32;;;;;;;7.72;4.10;;;7.60;98.80;;;;;;5082722;28;20370;-45
2022/04/21 03:31:58;;;;;;;6.30;3.60;;;7.70;98.80;;;;;;5059460;28;20066;-48
2022/04/21 03:34:23;;;;;;;7.25;4.30;;;7.60;99.00;;;;;;5059009;28;20897;-48
2022/04/21 03:36:49;;;;;;;7.05;4.22;;;7.60;99.10;;;;;;5080335;28;20420;-46
2022/04/21 03:39:16;;;;;;;6.53;4.30;;;7.60;99.10;;;;;;5061549;28;20485;-40
2022/04/21 03:41:42;;;;;;;7.75;4.53;;;7.60;99.80;;;;;;5081887;28;20108;-45
2022/04/21 03:44:11;;;;;;;8.10;4.43;;;7.50;99.90;;;;;;5079559;28;20507;-48
2022/04/21 03:46:38;;;;;;;6.70;4.10;;;7.50;99.90;;;;;;5059162;28;20334;-48
2022/04/21 03:49:07;;;;;;;7.68;4.32;;;7.50;99.90;;;;;;5060259;28;20043;-49
2022/04/21 03:51:34;;;;;;;7.60;4.00;;;7.50;99.90;;;;;;5078103;28;20062;-44
2022/04/21 03:53:59;;;;;;;8.25;4.20;;;7.50;99.90;;;;;;5080194;28;20405;-48
2022/04/21 03:56:27;;;;;;;6.32;3.97;;;7.40;99.90;;;;;;5080196;28;20034;-49
2022/04/21 03:58:53;;;;;;;6.30;4.10;;;7.40;99.90;;;;;;5082957;28;20044;-46
2022/04/21 04:01:19;;;;;;;7.57;4.13;;;7.30;99.90;;;;;;5082134;28;20043;-48
2022/04/21 04:03:45;;;;;;;7.28;3.75;;;7.30;99.90;;;;;;5083695;28;20489;-47
2022/04/21 04:11:40;;;;;;;8.25;4.35;;;7.20;99.90;;;;;;5081037;28;20047;-48
2022/04/21 04:14:06;;;;;;;6.93;4.22;;;7.20;99.90;;;;;;5080416;28;20465;-48
2022/04/21 04:16:35;;;;;;;7.47;4.50;;;7.20;99.90;;;;;;5079996;28;20075;-43
2022/04/21 04:19:07;;;;;;;6.88;4.30;;;7.20;99.90;;;;;;5075426;28;20516;-46
2022/04/21 04:21:34;;;;;;;6.95;4.40;;;7.20;99.90;;;;;;5080384;28;20048;-47
2022/04/21 04:24:00;;;;;;;10.70;3.92;;;7.10;99.90;;;;;;5081896;28;20559;-48
2022/04/21 04:26:27;;;;;;;6.78;3.70;;;7.20;99.90;;;;;;5075262;28;20082;-46
2022/04/21 04:28:53;;;;;;;8.88;4.50;;;7.10;99.90;;;;;;5076787;28;20040;-42
2022/04/21 04:31:18;;;;;;;7.30;4.40;;;7.10;99.90;;;;;;5080600;28;20713;-47
2022/04/21 04:33:44;;;;;;;10.52;4.57;;;7.10;99.90;;;;;;5081092;28;20036;-46
2022/04/21 04:36:10;;;;;;;7.60;4.55;;;7.10;99.90;;;;;;5086672;28;20043;-50
2022/04/21 04:38:37;;;;;;;7.20;4.57;;;7.10;99.90;;;;;;5083295;28;20122;-49
2022/04/21 04:43:49;;;;;;;8.27;4.75;;;7.00;99.90;;;;;;5082795;28;20142;-47
2022/04/21 04:48:58;;;;;;;8.75;4.88;;;7.00;99.90;;;;;;5079694;28;20110;-47
2022/04/21 04:51:26;;;;;;;6.53;4.05;;;7.00;99.90;;;;;;5080662;28;20514;-53
2022/04/21 04:53:53;;;;;;;8.00;4.22;;;7.00;99.90;;;;;;5081507;28;21111;-45
2022/04/21 04:56:22;;;;;;;9.07;4.90;;;7.00;99.90;;;;;;5080768;28;20043;-42
2022/04/21 04:58:48;;;;;;;11.25;5.28;;;7.00;99.90;;;;;;5081206;28;20047;-48
2022/04/21 05:01:26;;;;;;;8.38;4.20;;;7.00;99.90;;;;;;5067797;28;20204;-45
2022/04/21 05:04:05;;;;;;;6.72;4.32;;;7.10;99.90;;;;;;5087260;28;20051;-48
2022/04/21 05:06:37;;;;;;;9.57;5.10;;;7.10;99.90;;;;;;5070277;28;20056;-45
2022/04/21 05:09:05;;;;;;;9.27;4.35;;;7.10;99.90;;;;;;5090471;28;20403;-47
2022/04/21 05:11:31;;;;;;;8.57;5.20;;;7.10;99.90;;;;;;5062956;28;20096;-45
2022/04/21 05:13:57;;;;;;;8.68;4.72;;;7.10;99.90;;;;;;5087595;28;20052;-49
2022/04/21 05:16:22;;;;;;;9.55;5.22;;;7.20;99.90;;;;;;5080815;28;20078;-50
2022/04/21 05:18:49;;;;;;;8.30;4.97;;;7.20;99.90;;;;;;5090442;28;20088;-46
2022/04/21 05:21:16;;;;;;;7.50;4.13;;;7.20;99.90;;;;;;5069526;28;20040;-49
2022/04/21 05:23:46;;;;;;;8.57;4.70;;;7.20;99.90;;;;;;5084718;28;20063;-42
2022/04/21 05:26:12;;;;;;;8.30;4.47;;;7.30;99.90;;;;;;5084185;28;20040;-49
2022/04/21 05:28:38;;;;;;;7.88;5.05;;;7.30;99.90;;;;;;5086038;28;20480;-47
2022/04/21 05:31:04;;;;;;;7.32;4.15;;;7.30;99.90;;;;;;5079586;28;20036;-45
2022/04/21 05:33:30;;;;;;;8.90;5.30;;;7.30;99.90;;;;;;5085754;28;20064;-46
2022/04/21 05:35:58;;;;;;;9.40;5.10;;;7.40;99.90;;;;;;5088037;28;20043;-47
2022/04/21 05:38:24;;;;;;;7.82;4.30;;;7.40;99.90;;;;;;5083784;28;20079;-47
2022/04/21 05:40:50;;;;;;;8.25;4.22;;;7.50;99.90;;;;;;5084192;28;20102;-46
2022/04/21 05:43:21;;;;;;;8.43;4.57;;;7.50;99.90;;;;;;5078771;28;20040;-48
2022/04/21 05:45:48;;;;;;;8.57;5.18;;;7.60;99.90;;;;;;5046689;28;20063;-46
2022/04/21 05:48:15;;;;;;;6.22;4.05;;;7.70;99.90;;;;;;5061604;28;20048;-46
2022/04/21 05:50:47;;;;;;;8.82;4.20;;;7.70;99.90;;;;;;5084106;28;20073;-47
2022/04/21 05:53:21;;;;;;;8.02;4.65;;;7.80;99.90;;;;;;5065692;28;20107;-53
2022/04/21 05:55:47;;;;;;;8.85;4.78;;;7.90;99.90;;;;;;5079684;28;20063;-47
2022/04/21 05:58:13;;;;;;;7.53;4.60;;;8.00;99.90;;;;;;5077482;28;20505;-51
2022/04/21 06:00:39;;;;;;;8.32;4.50;;;8.00;99.90;;;;;;5063722;28;20150;-43
2022/04/21 06:03:05;;;;;;;7.93;5.03;;;8.10;99.90;;;;;;5081020;28;20044;-45
2022/04/21 06:05:31;;;;;;;8.15;4.60;;;8.20;99.90;;;;;;5084250;28;20054;-49
2022/04/21 06:07:57;;;;;;;7.70;4.82;;;8.30;99.90;;;;;;5080958;28;20028;-48
2022/04/21 06:10:23;;;;;;;6.78;4.18;;;8.30;99.90;;;;;;5083339;28;20150;-46
2022/04/21 06:12:49;;;;;;;8.77;4.68;;;8.40;99.90;;;;;;5059872;28;20052;-46
2022/04/21 06:15:16;;;;;;;8.73;4.63;;;8.50;99.90;;;;;;5077419;28;20036;-49
2022/04/21 06:17:45;;;;;;;6.88;4.32;;;8.50;99.80;;;;;;5081725;28;20074;-50
2022/04/21 06:20:11;;;;;;;8.75;5.15;;;8.60;99.50;;;;;;5077455;28;20035;-50
2022/04/21 06:22:37;;;;;;;8.13;5.00;;;8.70;99.30;;;;;;5080428;28;20068;-46
2022/04/21 06:25:03;;;;;;;7.15;4.68;;;8.80;98.90;;;;;;5080858;28;20154;-47
2022/04/21 06:27:28;;;;;;;7.18;4.13;;;8.80;98.50;;;;;;5061929;28;20048;-50
2022/04/21 06:29:54;;;;;;;7.03;4.03;;;8.90;98.20;;;;;;5061014;28;20123;-49
2022/04/21 06:32:19;;;;;;;7.72;3.63;;;9.00;97.80;;;;;;5082184;28;20040;-47
2022/04/21 06:34:45;;;;;;;6.20;3.83;;;9.10;97.50;;;;;;5086137;28;20507;-49
2022/04/21 06:37:11;;;;;;;7.35;4.28;;;9.20;96.90;;;;;;5081010;28;20036;-47
2022/04/21 06:39:36;;;;;;;8.50;4.18;;;9.20;96.20;;;;;;5080793;28;20476;-49
2022/04/21 06:42:02;;;;;;;6.88;3.55;;;9.30;95.70;;;;;;5080986;28;20036;-49
2022/04/21 06:49:57;;;;;;;7.63;4.05;;;9.50;94.40;;;;;;5079257;28;20097;-48
2022/04/21 06:52:22;;;;;;;6.47;3.30;;;9.60;93.90;;;;;;5081132;28;20143;-48
2022/04/21 06:54:48;;;;;;;7.35;3.65;;;9.60;93.30;;;;;;5073696;28;20107;-49
2022/04/21 06:57:14;;;;;;;6.93;3.58;;;9.70;92.90;;;;;;5075687;28;20043;-44
2022/04/21 06:59:39;;;;;;;5.55;3.25;;;9.70;92.50;;;;;;5081017;28;20032;-47
2022/04/21 07:02:06;;;;;;;8.45;3.67;;;9.80;91.70;;;;;;5081945;28;20051;-48
2022/04/21 07:04:31;;;;;;;5.75;3.10;;;9.90;91.10;;;;;;5085135;28;20074;-47
2022/04/21 07:06:57;;;;;;;6.80;3.05;;;10.00;90.50;;;;;;5084079;28;20485;-46
2022/04/21 07:09:23;;;;;;;6.30;3.03;;;10.10;89.60;;;;;;5078764;28;20059;-50
2022/04/21 07:11:49;;;;;;;5.78;3.05;;;10.20;88.20;;;;;;5081589;28;20289;-43
2022/04/21 07:14:15;;;;;;;5.47;3.17;;;10.20;87.00;;;;;;5067202;28;20051;-48
2022/04/21 07:16:40;;;;;;;6.00;3.30;;;10.30;85.50;;;;;;5081226;28;20083;-48
2022/04/21 07:19:06;;;;;;;6.30;3.10;;;10.40;84.70;;;;;;5075136;28;20103;-51
2022/04/21 07:21:32;;;;;;;4.93;2.80;;;10.40;83.20;;;;;;5074536;28;20101;-51
2022/04/21 07:23:57;;;;;;;5.57;2.72;;;10.50;82.00;;;;;;5068496;28;20708;-48
2022/04/21 07:26:23;;;;;;;4.90;2.70;;;10.60;80.90;;;;;;5079700;28;20664;-50
2022/04/21 07:28:48;;;;;;;5.72;3.05;;;10.70;79.70;;;;;;5079257;28;20397;-49
2022/04/21 07:31:15;;;;;;;4.53;2.58;;;10.70;78.50;;;;;;5082270;28;20040;-50
2022/04/21 07:33:41;;;;;;;5.88;2.60;;;10.80;77.50;;;;;;5066404;28;20050;-50
2022/04/21 07:36:07;;;;;;;6.85;2.58;;;10.80;77.70;;;;;;5081777;28;20032;-51
2022/04/21 07:38:34;;;;;;;5.45;2.30;;;10.90;77.50;;;;;;5080004;28;20413;-50
2022/04/21 07:41:00;;;;;;;5.63;2.38;;;11.00;76.10;;;;;;5078360;28;20495;-41
2022/04/21 07:43:26;;;;;;;5.60;2.65;;;11.10;75.00;;;;;;5085981;28;20050;-51
2022/04/21 07:45:51;;;;;;;3.85;2.33;;;11.20;74.40;;;;;;5062853;28;20051;-50
2022/04/21 07:48:18;;;;;;;5.07;2.55;;;11.30;73.10;;;;;;5082192;28;20120;-48
2022/04/21 07:50:44;;;;;;;6.57;2.33;;;11.40;72.10;;;;;;5084737;28;20085;-49
2022/04/21 07:53:15;;;;;;;5.55;2.53;;;11.40;71.80;;;;;;5075760;28;20083;-50
2022/04/21 07:55:46;;;;;;;5.47;2.30;;;11.50;72.00;;;;;;5074518;28;20457;-48
2022/04/21 07:58:12;;;;;;;4.32;1.92;;;11.70;71.40;;;;;;5081426;28;20031;-49
2022/04/21 08:00:40;;;;;;;3.53;2.20;;;11.80;70.80;;;;;;5085771;28;20484;-49
2022/04/21 08:03:07;;;;;;;5.32;2.40;;;12.00;70.40;;;;;;5077781;28;20039;-44
2022/04/21 08:05:33;;;;;;;4.57;2.10;;;12.10;68.90;;;;;;5083295;28;20040;-46
2022/04/21 08:07:59;;;;;;;3.97;2.15;;;12.20;67.60;;;;;;5087168;28;20048;-45
2022/04/21 08:10:29;;;;;;;3.22;1.88;;;12.30;67.20;;;;;;5066993;28;20093;-49
2022/04/21 08:12:58;;;;;;;3.63;1.88;;;12.40;66.10;;;;;;5089804;28;20042;-44
2022/04/21 08:15:31;;;;;;;4.50;2.17;;;12.50;66.50;;;;;;5085008;28;20044;-49
2022/04/21 08:18:04;;;;;;;3.20;1.45;;;12.70;65.80;;;;;;5081942;28;20032;-47
2022/04/21 08:20:32;;;;;;;3.60;1.60;;;12.90;65.40;;;;;;5085625;28;20048;-49
2022/04/21 08:22:58;;;;;;;3.83;1.70;;;13.00;64.20;;;;;;5085935;28;20542;-49
2022/04/21 08:33:37;;;;;;;5.85;2.10;;;13.50;60.70;;;;;;5089417;28;20127;-46
2022/04/21 08:36:03;;;;;;;2.30;1.13;;;13.60;59.10;;;;;;5065662;28;20497;-46
2022/04/21 08:38:30;;;;;;;4.15;1.55;;;13.60;58.80;;;;;;5084711;28;20119;-48
2022/04/21 08:40:58;;;;;;;3.13;1.35;;;13.70;58.20;;;;;;5085817;28;20040;-44
2022/04/21 08:43:27;;;;;;;2.05;1.30;;;13.80;58.10;;;;;;5088820;28;20066;-44
2022/04/21 08:45:53;;;;;;;2.25;1.23;;;14.00;58.20;;;;;;5083857;28;20119;-48
2022/04/21 08:48:24;;;;;;;2.97;1.67;;;14.10;57.70;;;;;;5074646;28;20405;-46
2022/04/21 08:50:51;;;;;;;3.95;1.70;;;14.30;56.90;;;;;;5073500;28;20092;-45
2022/04/21 08:53:22;;;;;;;3.58;1.50;;;14.30;56.00;;;;;;5078266;28;20035;-49
2022/04/21 08:55:48;;;;;;;8.93;1.77;;;14.40;56.10;;;;;;5088304;28;20147;-47
2022/04/21 08:58:14;;;;;;;3.20;1.85;;;14.50;56.00;;;;;;5080926;28;20028;-45
2022/04/21 09:00:42;;;;;;;4.32;1.50;;;14.50;55.60;;;;;;5086858;28;20039;-46
2022/04/21 09:03:09;;;;;;;4.63;1.48;;;14.60;54.80;;;;;;5087527;28;20108;-47
2022/04/21 09:05:35;;;;;;;2.63;1.30;;;14.70;54.50;;;;;;5086447;28;20058;-47
2022/04/21 09:08:01;;;;;;;5.03;1.77;;;14.80;54.40;;;;;;5072433;28;20036;-50
2022/04/21 09:10:32;;;;;;;4.85;1.63;;;14.80;54.00;;;;;;5064479;28;20350;-49
2022/04/21 09:13:03;;;;;;;5.18;1.40;;;14.90;53.90;;;;;;5071433;28;20071;-47
2022/04/21 09:15:30;;;;;;;3.10;1.33;;;15.00;53.90;;;;;;5086749;28;20068;-49
2022/04/21 09:18:01;;;;;;;4.70;1.85;;;15.10;53.80;;;;;;5066372;28;20210;-48
2022/04/21 09:20:30;;;;;;;3.42;1.73;;;15.20;52.40;;;;;;5086218;28;20500;-50
2022/04/21 09:22:59;;;;;;;3.38;1.42;;;15.20;52.80;;;;;;5083924;28;20100;-47
2022/04/21 09:25:26;;;;;;;4.32;1.67;;;15.20;52.60;;;;;;5084328;28;20044;-49
2022/04/21 09:27:52;;;;;;;5.40;1.60;;;15.30;52.90;;;;;;5078578;28;20488;-49
2022/04/21 09:30:18;;;;;;;5.30;1.50;;;15.40;52.90;;;;;;5088951;28;20434;-45
2022/04/21 09:32:52;;;;;;;2.58;1.63;;;15.50;52.20;;;;;;5086074;28;20040;-49
2022/04/21 09:35:18;;;;;;;2.42;1.50;;;15.60;51.70;;;;;;5082254;28;20169;-48
2022/04/21 09:37:54;;;;;;;4.88;2.10;;;15.70;51.30;;;;;;5085342;28;20028;-50
2022/04/21 09:40:25;;;;;;;2.63;1.67;;;15.80;51.30;;;;;;5083070;28;20501;-48
2022/04/21 09:42:55;;;;;;;4.20;1.58;;;15.80;50.90;;;;;;5087213;28;20112;-47
2022/04/21 09:48:39;;;;;;;4.00;1.98;;;16.00;50.60;;;;;;5070868;28;20087;-47
2022/04/21 09:51:15;;;;;;;3.97;1.92;;;16.20;51.00;;;;;;5087171;28;20044;-50
2022/04/21 09:54:00;;;;;;;3.83;1.40;;;16.30;50.40;;;;;;5086808;28;20043;-47
2022/04/21 09:56:30;;;;;;;3.92;1.50;;;16.40;50.30;;;;;;5088303;28;20728;-48
2022/04/21 09:58:56;;;;;;;4.72;1.30;;;16.50;50.00;;;;;;5084304;28;20599;-47
2022/04/21 10:01:22;;;;;;;3.15;1.27;;;16.60;49.40;;;;;;5061528;28;20044;-49
2022/04/21 10:03:48;;;;;;;2.17;1.40;;;16.60;48.60;;;;;;5082375;28;20682;-47
2022/04/21 10:06:16;;;;;;;4.85;1.55;;;16.60;48.40;;;;;;5062963;28;20035;-50
2022/04/21 10:08:43;;;;;;;1.92;1.33;;;16.70;48.60;;;;;;5087663;28;20039;-49
2022/04/21 10:11:09;;;;;;;2.72;1.35;;;16.70;47.70;;;;;;5083966;28;20039;-46
2022/04/21 10:13:35;;;;;;;3.97;1.60;;;16.70;47.70;;;;;;5077213;28;20028;-49
2022/04/21 10:16:02;;;;;;;3.13;1.35;;;16.80;47.50;;;;;;5084362;28;20036;-46
2022/04/21 10:18:28;;;;;;;4.43;1.30;;;16.80;47.20;;;;;;5078014;28;20497;-50
2022/04/21 10:20:55;;;;;;;1.55;1.08;;;16.80;46.30;;;;;;5076788;28;20044;-48
2022/04/21 10:23:22;;;;;;;3.28;1.52;;;16.90;46.70;;;;;;5060003;28;20523;-49
2022/04/21 10:26:02;;;;;;;3.47;1.60;;;17.00;46.60;;;;;;5061752;28;20074;-47
2022/04/21 10:28:35;;;;;;;2.75;1.33;;;17.10;46.10;;;;;;5062921;28;20089;-50
2022/04/21 10:31:29;;;;;;;1.90;1.20;;;17.30;46.90;;;;;;5079357;28;20043;-47
2022/04/21 10:34:03;;;;;;;2.30;1.00;;;17.40;46.40;;;;;;5078582;28;20032;-46
2022/04/21 10:36:46;;;;;;;2.38;1.02;;;17.60;46.70;;;;;;5077775;28;20036;-48
2022/04/21 10:39:18;;;;;;;5.28;1.40;;;17.70;44.40;;;;;;5083502;28;20059;-49
2022/04/21 10:41:45;;;;;;;3.53;1.10;;;17.70;43.80;;;;;;5079114;28;20468;-49
2022/04/21 10:44:15;;;;;;;1.80;0.95;;;17.70;44.00;;;;;;5086003;28;20071;-47
2022/04/21 10:46:41;;;;;;;2.72;0.85;;;17.80;45.10;;;;;;5079096;28;20055;-50
2022/04/21 10:49:07;;;;;;;2.47;1.30;;;17.80;44.10;;;;;;5064736;28;20489;-50
2022/04/21 10:51:41;;;;;;;2.35;1.15;;;17.90;43.80;;;;;;5081763;28;20043;-47
2022/04/21 11:00:05;;;;;;;2.50;1.42;;;18.10;42.60;;;;;;5081366;28;20050;-47
2022/04/21 11:02:45;;;;;;;4.47;1.65;;;18.10;42.40;;;;;;5079176;28;20055;-48
2022/04/21 11:05:22;;;;;;;2.35;1.20;;;18.10;42.70;;;;;;5082437;28;20047;-50
2022/04/21 11:07:54;;;;;;;3.95;1.25;;;18.20;42.10;;;;;;5066326;28;20036;-48
2022/04/21 11:10:27;;;;;;;3.35;1.20;;;18.20;42.10;;;;;;5081553;28;20473;-48
2022/04/21 11:12:52;;;;;;;4.47;1.60;;;18.30;41.70;;;;;;5078667;28;20524;-49
2022/04/21 11:15:46;;;;;;;2.05;1.00;;;18.50;42.40;;;;;;5085935;28;20115;-53
2022/04/21 11:18:15;;;;;;;2.33;1.00;;;18.60;41.80;;;;;;5084017;28;20055;-47
2022/04/21 11:20:51;;;;;;;2.10;1.27;;;18.80;42.20;;;;;;5074766;28;20397;-48
2022/04/21 11:23:31;;;;;;;3.55;1.40;;;18.90;41.50;;;;;;5077373;28;20036;-44
2022/04/21 11:26:05;;;;;;;2.55;1.20;;;19.00;40.70;;;;;;5072078;28;20079;-47
2022/04/21 11:28:31;;;;;;;1.92;1.20;;;19.10;41.20;;;;;;5079640;28;20032;-49
2022/04/21 11:31:06;;;;;;;2.17;1.05;;;19.00;40.20;;;;;;5064050;28;20059;-48
2022/04/21 11:33:31;;;;;;;3.13;1.30;;;19.10;40.10;;;;;;5077323;28;20047;-48
2022/04/21 11:36:08;;;;;;;1.98;1.00;;;19.00;40.50;;;;;;5077699;28;20032;-44
2022/04/21 11:38:35;;;;;;;2.33;0.95;;;19.10;41.40;;;;;;5077766;28;20067;-44
2022/04/21 11:41:05;;;;;;;3.15;1.23;;;19.00;40.60;;;;;;5076628;28;20373;-43
2022/04/21 11:43:31;;;;;;;3.05;1.00;;;19.10;40.60;;;;;;5081647;28;20055;-49
2022/04/21 11:46:02;;;;;;;1.90;1.10;;;19.20;40.80;;;;;;5080209;28;20032;-48
2022/04/21 11:48:31;;;;;;;3.78;1.30;;;19.30;40.30;;;;;;5065213;28;20079;-46
2022/04/21 11:50:57;;;;;;;2.10;0.98;;;19.10;40.20;;;;;;5066526;28;20400;-51
2022/04/21 11:53:26;;;;;;;3.15;1.17;;;19.20;40.60;;;;;;5084148;28;20032;-50
2022/04/21 11:55:53;;;;;;;5.15;1.00;;;19.30;40.20;;;;;;5081603;28;20070;-46
2022/04/21 11:58:35;;;;;;;3.30;1.13;;;19.50;39.60;;;;;;5076826;28;20036;-50
2022/04/21 12:06:39;;;;;;;2.40;1.10;;;19.70;38.60;;;;;;5077360;28;20048;-50
2022/04/21 12:09:05;;;;;;;3.72;1.30;;;19.70;38.90;;;;;;5084052;28;20489;-48
2022/04/21 12:11:34;;;;;;;1.55;1.00;;;19.80;38.20;;;;;;5084901;28;20101;-52
2022/04/21 12:14:00;;;;;;;2.03;1.10;;;19.80;38.80;;;;;;5082055;28;20039;-51
2022/04/21 12:17:01;;;;;;;2.85;1.25;;;19.90;38.70;;;;;;5056986;28;20032;-50
2022/04/21 12:19:38;;;;;;;2.90;1.13;;;20.10;38.80;;;;;;5079402;28;20151;-49
2022/04/21 12:22:09;;;;;;;4.35;1.40;;;20.20;37.90;;;;;;5075570;28;20044;-50
2022/04/21 12:24:41;;;;;;;2.42;1.35;;;20.20;38.20;;;;;;5076134;28;20051;-51
2022/04/21 12:27:18;;;;;;;3.90;1.58;;;20.30;38.00;;;;;;5082454;28;20075;-43
2022/04/21 12:29:54;;;;;;;5.40;1.40;;;20.30;38.50;;;;;;5082923;28;20036;-49
2022/04/21 12:32:22;;;;;;;4.32;1.67;;;20.30;38.20;;;;;;5085736;28;20489;-47
2022/04/21 12:34:48;;;;;;;3.40;1.70;;;20.20;38.40;;;;;;5083513;28;20528;-51
2022/04/21 12:37:14;;;;;;;5.68;1.65;;;20.20;38.80;;;;;;5076662;28;20041;-50
2022/04/21 12:39:40;;;;;;;3.88;1.80;;;20.30;38.70;;;;;;5083209;28;20338;-47
2022/04/21 12:42:07;;;;;;;3.28;1.65;;;20.30;38.70;;;;;;5065201;28;20040;-51
2022/04/21 12:44:33;;;;;;;5.07;1.75;;;20.50;38.80;;;;;;5081996;28;20112;-51
2022/04/21 12:47:05;;;;;;;4.05;1.90;;;20.80;38.80;;;;;;5082786;28;20182;-50
2022/04/21 12:49:56;;;;;;;2.23;1.40;;;20.90;38.00;;;;;;5075976;28;20073;-48
2022/04/21 12:52:44;;;;;;;1.98;1.20;;;21.10;37.90;;;;;;5074110;28;20511;-51
2022/04/21 12:55:13;;;;;;;2.95;1.30;;;21.40;38.20;;;;;;5080136;28;20029;-51
2022/04/21 12:57:40;;;;;;;4.72;1.33;;;21.50;37.80;;;;;;5079548;28;20035;-48
2022/04/21 13:00:10;;;;;;;5.80;1.63;;;21.70;37.90;;;;;;5088999;28;20060;-50
2022/04/21 13:02:37;;;;;;;4.88;1.70;;;21.90;36.70;;;;;;5090661;28;20570;-49
2022/04/21 13:05:03;;;;;;;5.40;1.80;;;21.90;36.10;;;;;;5085119;28;20040;-47
2022/04/21 13:07:29;;;;;;;3.53;1.83;;;22.00;36.10;;;;;;5081032;28;20039;-50
2022/04/21 13:09:55;;;;;;;3.00;1.45;;;22.00;36.40;;;;;;5081064;28;20040;-50
2022/04/21 13:12:21;;;;;;;4.13;1.80;;;22.10;35.90;;;;;;5082642;28;20036;-50
2022/04/21 13:14:46;;;;;;;2.75;1.92;;;22.20;35.40;;;;;;5081090;28;20039;-50
2022/04/21 13:17:12;;;;;;;4.00;2.20;;;22.20;36.20;;;;;;5060640;28;20587;-49
2022/04/21 13:19:38;;;;;;;5.82;1.73;;;22.30;35.20;;;;;;5081906;28;20040;-50
2022/04/21 13:22:04;;;;;;;5.60;1.73;;;22.50;34.60;;;;;;5088606;28;20043;-49
2022/04/21 13:24:31;;;;;;;2.72;1.77;;;23.00;34.40;;;;;;5067077;28;20043;-50
2022/04/21 13:26:58;;;;;;;3.63;2.05;;;23.40;34.70;;;;;;5085101;28;20059;-46
2022/04/21 13:29:24;;;;;;;3.47;2.08;;;23.70;33.30;;;;;;5066922;28;20095;-47
2022/04/21 13:34:35;;;;;;;6.53;2.80;;;23.10;33.00;;;;;;5082408;28;20036;-51
2022/04/21 13:37:02;;;;;;;4.30;2.30;;;22.70;34.10;;;;;;5083171;28;20130;-50
2022/04/21 13:39:28;;;;;;;4.22;2.30;;;22.60;34.70;;;;;;5082404;28;20048;-50
2022/04/21 13:41:54;;;;;;;4.50;2.30;;;22.90;35.20;;;;;;5079362;28;20037;-50
2022/04/21 13:44:19;;;;;;;5.80;1.92;;;23.10;34.30;;;;;;5084159;28;20125;-48
2022/04/21 13:46:45;;;;;;;3.55;2.00;;;23.40;33.90;;;;;;5060666;28;20048;-51
2022/04/21 13:49:11;;;;;;;5.45;1.90;;;23.70;33.70;;;;;;5083430;28;20063;-47
2022/04/21 13:51:38;;;;;;;5.15;1.83;;;23.80;33.10;;;;;;5079169;28;20042;-50